Time;durP1;ratioP1;P1;durP2;ratioP2;P2;SDS_P1;SDS_P2;PMS_P1;PMS_P2;Temp;Humidity;BMP_temperature;BMP_pressure;BME280_temperature;BME280_humidity;BME280_pressure;Samples;Min_cycle;Max_cycle;Signal;HPM_P1;HPM_P2
2022/05/18 00:02:42;;;;;;;5.25;1.20;;;18.70;88.20;;;;;;6270750;28;20049;-84
2022/05/18 00:05:45;;;;;;;1.58;0.88;;;18.60;88.50;;;;;;6276295;28;20087;-81
2022/05/18 00:08:47;;;;;;;1.80;1.10;;;18.60;88.50;;;;;;6276124;28;20460;-82
2022/05/18 00:11:49;;;;;;;2.05;1.02;;;18.60;88.60;;;;;;6274933;28;20037;-82
2022/05/18 00:14:51;;;;;;;1.98;1.25;;;18.60;88.80;;;;;;6276613;28;20053;-83
2022/05/18 00:17:55;;;;;;;5.03;1.48;;;18.50;88.70;;;;;;6275584;28;20128;-83
2022/05/18 00:20:58;;;;;;;4.22;1.10;;;18.50;89.00;;;;;;6275442;28;20515;-83
2022/05/18 00:24:00;;;;;;;4.00;1.30;;;18.40;89.20;;;;;;6276257;28;20144;-83
2022/05/18 00:27:03;;;;;;;2.47;1.10;;;18.40;89.10;;;;;;6276309;28;20063;-84
2022/05/18 00:30:06;;;;;;;1.48;1.27;;;18.40;89.00;;;;;;6275280;28;20044;-83
2022/05/18 00:33:10;;;;;;;1.73;1.30;;;18.40;88.90;;;;;;6275361;28;20124;-83
2022/05/18 00:36:12;;;;;;;2.33;1.08;;;18.30;89.10;;;;;;6276226;28;20051;-82
2022/05/18 00:39:14;;;;;;;2.28;1.20;;;18.40;89.10;;;;;;6276016;28;20049;-81
2022/05/18 00:42:19;;;;;;;2.45;1.30;;;18.30;89.40;;;;;;6274955;28;20080;-82
2022/05/18 00:45:21;;;;;;;7.53;1.95;;;18.30;89.70;;;;;;6275318;28;20045;-82
2022/05/18 00:48:25;;;;;;;5.50;1.60;;;18.20;90.00;;;;;;6268710;28;20634;-82
2022/05/18 00:51:30;;;;;;;5.88;1.88;;;18.10;90.10;;;;;;6275011;28;20059;-83
2022/05/18 00:54:32;;;;;;;2.00;1.60;;;18.00;90.50;;;;;;6270393;28;20139;-82
2022/05/18 00:57:39;;;;;;;1.80;1.13;;;18.00;90.30;;;;;;6275453;28;20392;-83
2022/05/18 01:00:43;;;;;;;1.92;1.40;;;18.00;90.40;;;;;;6275757;28;20077;-83
2022/05/18 01:03:50;;;;;;;4.43;2.17;;;17.90;90.40;;;;;;6275159;28;20052;-82
2022/05/18 01:06:59;;;;;;;2.38;1.25;;;17.90;90.50;;;;;;6276452;28;20053;-82
2022/05/18 01:10:01;;;;;;;2.92;1.30;;;17.80;90.70;;;;;;6279740;28;20055;-82
2022/05/18 01:13:04;;;;;;;3.80;1.75;;;17.70;90.70;;;;;;6290697;28;20045;-82
2022/05/18 01:16:06;;;;;;;5.40;1.30;;;17.60;91.20;;;;;;6281318;28;20856;-84
2022/05/18 01:19:16;;;;;;;2.15;1.58;;;17.60;90.90;;;;;;6277048;28;20132;-83
2022/05/18 01:22:27;;;;;;;7.00;1.83;;;17.60;91.00;;;;;;6276690;28;20060;-83
2022/05/18 01:25:39;;;;;;;1.75;1.40;;;17.50;91.20;;;;;;6275695;28;20091;-84
2022/05/18 01:28:49;;;;;;;5.28;1.30;;;17.50;91.30;;;;;;6275422;28;20041;-83
2022/05/18 01:31:53;;;;;;;1.48;0.93;;;17.40;91.50;;;;;;6275895;28;20083;-83
2022/05/18 01:34:54;;;;;;;4.10;1.52;;;17.30;91.60;;;;;;6275921;28;20404;-82
2022/05/18 01:37:59;;;;;;;1.80;1.20;;;17.30;91.70;;;;;;6275062;28;20052;-83
2022/05/18 01:41:04;;;;;;;3.20;1.90;;;17.20;91.80;;;;;;6275049;28;20488;-82
2022/05/18 01:44:08;;;;;;;4.82;1.50;;;17.20;91.80;;;;;;6275131;28;20044;-82
2022/05/18 01:47:10;;;;;;;4.00;1.52;;;17.10;92.00;;;;;;6275343;28;20179;-83
2022/05/18 01:50:15;;;;;;;2.92;1.80;;;17.00;92.10;;;;;;6274351;28;20495;-82
2022/05/18 01:53:18;;;;;;;3.55;1.33;;;17.00;92.30;;;;;;6272332;28;20049;-82
2022/05/18 01:56:20;;;;;;;4.93;2.20;;;16.90;92.50;;;;;;6250078;28;20041;-82
2022/05/18 01:59:23;;;;;;;3.63;1.38;;;16.90;92.60;;;;;;6250670;28;20087;-81
2022/05/18 02:02:24;;;;;;;2.63;1.63;;;16.90;92.50;;;;;;6251544;28;20068;-82
2022/05/18 02:05:26;;;;;;;2.88;1.63;;;16.90;92.50;;;;;;6250960;28;20065;-82
2022/05/18 02:08:28;;;;;;;2.90;1.50;;;17.00;92.30;;;;;;6250796;28;20054;-82
2022/05/18 02:11:33;;;;;;;3.00;1.48;;;17.00;91.90;;;;;;6251443;28;20490;-83
2022/05/18 02:14:36;;;;;;;7.60;1.27;;;17.10;91.70;;;;;;6251975;28;20053;-83
2022/05/18 02:17:38;;;;;;;2.38;1.27;;;17.10;91.60;;;;;;6251982;28;20053;-82
2022/05/18 02:20:41;;;;;;;5.28;1.30;;;17.10;91.60;;;;;;6251294;28;20120;-82
2022/05/18 02:23:43;;;;;;;2.05;1.42;;;17.10;91.60;;;;;;6252417;28;20124;-82
2022/05/18 02:26:45;;;;;;;3.83;1.30;;;17.10;91.50;;;;;;6251636;28;20060;-81
2022/05/18 02:29:50;;;;;;;2.28;1.42;;;17.20;91.40;;;;;;6251145;28;20049;-83
2022/05/18 02:32:52;;;;;;;3.90;1.27;;;17.20;91.40;;;;;;6251850;28;20053;-83
2022/05/18 02:35:54;;;;;;;2.42;1.38;;;17.30;91.30;;;;;;6255704;28;20045;-81
2022/05/18 02:38:56;;;;;;;8.40;1.65;;;17.30;91.30;;;;;;6256420;28;20049;-81
2022/05/18 02:41:57;;;;;;;1.63;1.13;;;17.30;91.30;;;;;;6257206;28;20606;-83
2022/05/18 02:45:01;;;;;;;2.67;1.38;;;17.20;91.40;;;;;;6255874;28;20049;-82
2022/05/18 02:48:02;;;;;;;4.03;1.20;;;17.10;91.40;;;;;;6255572;28;20041;-82
2022/05/18 02:51:05;;;;;;;2.15;1.33;;;17.10;91.50;;;;;;6255737;28;20107;-83
2022/05/18 02:56:05;;;;;;;4.13;1.40;;;17.00;91.70;;;;;;6256612;28;20424;-82
2022/05/18 02:57:29;;;;;;;5.20;1.60;;;17.00;91.80;;;;;;6269443;28;20040;-82
2022/05/18 03:00:32;;;;;;;4.07;1.35;;;16.90;91.90;;;;;;6281553;28;20037;-84
2022/05/18 03:03:34;;;;;;;4.68;1.90;;;16.90;91.90;;;;;;6285187;28;20056;-83
2022/05/18 03:06:36;;;;;;;2.90;1.50;;;16.80;92.00;;;;;;6285938;28;20146;-82
2022/05/18 03:09:38;;;;;;;2.08;1.58;;;16.80;92.10;;;;;;6280816;28;20045;-82
2022/05/18 03:12:40;;;;;;;2.75;1.60;;;16.70;92.10;;;;;;6280931;28;20126;-82
2022/05/18 03:15:43;;;;;;;5.18;1.70;;;16.70;92.20;;;;;;6279085;28;20036;-82
2022/05/18 03:18:45;;;;;;;3.47;1.77;;;16.60;92.30;;;;;;6280249;28;20045;-83
2022/05/18 03:25:07;;;;;;;6.07;2.25;;;16.50;92.40;;;;;;6278617;28;20045;-83
2022/05/18 03:28:08;;;;;;;4.78;2.00;;;16.50;92.50;;;;;;6277740;28;20458;-81
2022/05/18 03:31:12;;;;;;;3.45;1.63;;;16.40;92.60;;;;;;6278458;28;20045;-82
2022/05/18 03:34:14;;;;;;;3.03;1.58;;;16.40;92.70;;;;;;6278344;28;20049;-82
2022/05/18 03:37:15;;;;;;;6.90;2.30;;;16.40;92.70;;;;;;6277303;28;20044;-83
2022/05/18 03:40:17;;;;;;;5.25;1.90;;;16.40;92.70;;;;;;6277943;28;20059;-83
2022/05/18 03:43:19;;;;;;;4.63;1.98;;;16.30;93.00;;;;;;6276739;28;20392;-83
2022/05/18 03:46:22;;;;;;;4.20;1.85;;;16.30;93.00;;;;;;6276755;28;20045;-83
2022/05/18 03:49:24;;;;;;;5.30;1.55;;;16.30;93.00;;;;;;6276057;28;20543;-82
2022/05/18 03:52:26;;;;;;;4.90;2.08;;;16.30;93.10;;;;;;6277072;28;20064;-83
2022/05/18 03:55:28;;;;;;;6.03;1.92;;;16.20;93.10;;;;;;6272865;28;20049;-82
2022/05/18 03:58:30;;;;;;;5.53;2.00;;;16.20;93.20;;;;;;6251295;28;20052;-83
2022/05/18 04:01:33;;;;;;;5.80;1.77;;;16.20;93.50;;;;;;6250681;28;20190;-83
2022/05/18 04:04:35;;;;;;;7.78;2.00;;;16.30;93.60;;;;;;6255301;28;20163;-83
2022/05/18 04:07:37;;;;;;;3.70;1.45;;;16.30;93.50;;;;;;6273811;28;20060;-83
2022/05/18 04:10:40;;;;;;;11.82;1.77;;;16.40;93.50;;;;;;6273249;28;20412;-83
2022/05/18 04:13:42;;;;;;;2.38;1.40;;;16.50;93.50;;;;;;6273121;28;20131;-83
2022/05/18 04:16:49;;;;;;;5.85;2.38;;;16.60;93.30;;;;;;6273562;28;20526;-83
2022/05/18 04:19:50;;;;;;;2.83;1.75;;;16.60;93.20;;;;;;6273256;28;20175;-83
2022/05/18 04:22:53;;;;;;;2.40;1.70;;;16.60;93.30;;;;;;6273524;28;20198;-82
2022/05/18 04:25:55;;;;;;;5.22;1.92;;;16.80;93.30;;;;;;6272996;28;20079;-83
2022/05/18 04:28:57;;;;;;;4.75;1.48;;;17.00;93.10;;;;;;6273344;28;20037;-83
2022/05/18 04:32:00;;;;;;;5.97;1.70;;;17.10;92.70;;;;;;6283307;28;20132;-82
2022/05/18 04:35:02;;;;;;;3.97;1.80;;;17.20;92.60;;;;;;6294448;28;20048;-83
2022/05/18 04:38:03;;;;;;;5.47;1.83;;;17.50;92.20;;;;;;6281383;28;20569;-83
2022/05/18 04:41:05;;;;;;;5.13;2.40;;;18.00;91.70;;;;;;6280388;28;20389;-83
2022/05/18 04:44:07;;;;;;;3.20;1.92;;;18.60;90.80;;;;;;6279271;28;20045;-83
2022/05/18 04:47:10;;;;;;;10.23;2.33;;;19.00;90.00;;;;;;6279616;28;20151;-83
2022/05/18 04:50:12;;;;;;;3.80;2.63;;;19.10;89.70;;;;;;6275979;28;20040;-82
2022/05/18 04:53:15;;;;;;;9.52;4.97;;;19.30;89.50;;;;;;6275240;28;20053;-83
2022/05/18 04:56:16;;;;;;;4.55;1.85;;;19.70;88.70;;;;;;6273444;28;20056;-82
2022/05/18 04:59:18;;;;;;;8.73;2.20;;;20.10;87.80;;;;;;6272386;28;20045;-83
2022/05/18 05:02:21;;;;;;;4.20;2.00;;;20.50;86.70;;;;;;6273310;28;20045;-83
2022/05/18 05:05:24;;;;;;;13.25;2.10;;;21.10;84.90;;;;;;6273175;28;20549;-82
2022/05/18 05:08:26;;;;;;;3.00;1.63;;;22.00;82.80;;;;;;6273191;28;20417;-84
2022/05/18 05:11:27;;;;;;;9.88;2.00;;;22.80;80.10;;;;;;6272972;28;20063;-83
2022/05/18 05:14:29;;;;;;;4.82;2.10;;;23.70;77.10;;;;;;6273765;28;20523;-83
2022/05/18 05:17:33;;;;;;;3.70;1.33;;;24.80;73.80;;;;;;6273270;28;20103;-83
2022/05/18 05:20:34;;;;;;;4.50;1.63;;;26.10;69.70;;;;;;6273203;28;20174;-83
2022/05/18 05:23:36;;;;;;;3.92;1.63;;;27.40;65.90;;;;;;6274491;28;20486;-83
2022/05/18 05:26:38;;;;;;;12.40;1.65;;;28.60;61.80;;;;;;6275186;28;20057;-82
2022/05/18 05:29:40;;;;;;;5.90;1.88;;;29.70;58.70;;;;;;6276428;28;20041;-84
2022/05/18 05:32:43;;;;;;;6.07;2.10;;;30.60;55.70;;;;;;6276131;28;20360;-84
2022/05/18 05:35:45;;;;;;;3.63;1.52;;;31.70;52.20;;;;;;6272349;28;20052;-83
2022/05/18 05:38:47;;;;;;;4.53;1.50;;;32.90;48.90;;;;;;6271747;28;20173;-85
2022/05/18 05:41:49;;;;;;;5.60;1.88;;;33.80;46.40;;;;;;6272507;28;20095;-84
2022/05/18 05:44:51;;;;;;;3.80;1.45;;;35.00;43.70;;;;;;6272175;28;20178;-84
2022/05/18 05:47:54;;;;;;;4.43;1.38;;;36.10;41.10;;;;;;6272236;28;20124;-84
2022/05/18 05:51:12;;;;;;;4.15;1.95;;;36.90;39.40;;;;;;6284332;22;20054;-83
2022/05/18 07:52:36;;;;;;;4.65;1.10;;;42.90;28.10;;;;;;6208164;28;20041;-84
2022/05/18 07:55:38;;;;;;;2.95;1.10;;;39.80;30.00;;;;;;6220962;28;20056;-82
2022/05/18 07:58:40;;;;;;;2.53;0.95;;;37.80;32.20;;;;;;6230172;28;20456;-84
2022/05/18 08:05:09;;;;;;;5.05;1.40;;;35.30;35.20;;;;;;6231209;28;20432;-82
2022/05/18 08:08:14;;;;;;;5.13;1.33;;;34.40;36.20;;;;;;6231261;28;20443;-83
2022/05/18 08:17:57;;;;;;;2.75;1.10;;;32.90;37.70;;;;;;6242649;28;20049;-86
2022/05/18 08:20:59;;;;;;;2.60;0.80;;;32.70;38.60;;;;;;6228837;28;20072;-83
2022/05/18 08:24:02;;;;;;;1.98;1.10;;;32.50;38.90;;;;;;6231342;28;20053;-83
2022/05/18 08:27:05;;;;;;;7.45;1.23;;;32.40;39.90;;;;;;6229223;28;20146;-83
2022/05/18 08:30:13;;;;;;;7.47;1.33;;;32.40;39.80;;;;;;6229997;28;20073;-83
2022/05/18 08:33:14;;;;;;;5.68;1.38;;;32.40;39.70;;;;;;6228865;28;20045;-81
2022/05/18 08:36:18;;;;;;;3.42;1.10;;;32.40;40.40;;;;;;6230077;28;20041;-84
2022/05/18 08:39:21;;;;;;;3.63;1.15;;;32.40;39.40;;;;;;6236597;28;20076;-80
2022/05/18 08:42:23;;;;;;;2.45;1.20;;;32.30;39.70;;;;;;6235979;28;20157;-82
2022/05/18 08:45:28;;;;;;;6.18;0.80;;;32.50;39.90;;;;;;6236366;28;20480;-84
2022/05/18 08:48:42;;;;;;;3.67;1.15;;;32.50;40.20;;;;;;6249993;28;20050;-84
2022/05/18 08:52:02;;;;;;;4.63;1.20;;;32.50;40.00;;;;;;6262501;28;20045;-81
2022/05/18 08:55:23;;;;;;;5.13;1.30;;;32.50;39.80;;;;;;6261662;28;20121;-81
2022/05/18 08:58:36;;;;;;;6.18;1.10;;;32.60;39.50;;;;;;6256948;28;20053;-81
2022/05/18 09:01:41;;;;;;;2.63;0.63;;;32.70;39.80;;;;;;6244469;28;20056;-84
2022/05/18 09:04:49;;;;;;;2.08;1.38;;;32.80;38.70;;;;;;6231243;28;20084;-83
2022/05/18 09:08:04;;;;;;;2.80;1.15;;;32.60;39.00;;;;;;6229578;28;20093;-83
2022/05/18 09:11:10;;;;;;;4.05;1.60;;;32.30;38.80;;;;;;6235193;28;20056;-84
2022/05/18 09:14:14;;;;;;;2.20;0.88;;;32.10;39.00;;;;;;6227006;28;20042;-84
2022/05/18 09:17:25;;;;;;;3.00;0.93;;;32.30;39.40;;;;;;6238289;28;20045;-83
2022/05/18 09:20:36;;;;;;;5.32;1.10;;;32.50;39.00;;;;;;6257045;28;20551;-82
2022/05/18 09:23:52;;;;;;;5.25;1.08;;;32.60;39.20;;;;;;6254793;28;20067;-82
2022/05/18 09:27:23;;;;;;;3.60;0.93;;;32.70;38.20;;;;;;6257114;28;20045;-83
2022/05/18 09:30:36;;;;;;;1.75;0.90;;;32.80;37.60;;;;;;6247923;28;20049;-85
2022/05/18 09:33:56;;;;;;;2.50;1.05;;;32.80;37.00;;;;;;6260674;28;20076;-84
2022/05/18 09:37:29;;;;;;;1.98;1.15;;;32.70;37.60;;;;;;6251437;28;20088;-84
2022/05/18 09:40:35;;;;;;;5.40;1.25;;;32.90;37.40;;;;;;6251943;28;20057;-84
2022/05/18 09:43:45;;;;;;;3.70;0.80;;;33.10;37.90;;;;;;6257143;28;20080;-85
2022/05/18 09:46:48;;;;;;;2.13;1.00;;;33.30;36.60;;;;;;6257994;28;20117;-84
2022/05/18 09:49:52;;;;;;;5.22;1.58;;;33.40;36.50;;;;;;6259082;28;20488;-85
2022/05/18 09:52:55;;;;;;;3.13;0.85;;;33.40;36.90;;;;;;6258233;28;20057;-85
2022/05/18 09:55:56;;;;;;;4.90;1.02;;;33.40;36.50;;;;;;6258536;28;20038;-84
2022/05/18 09:59:07;;;;;;;2.30;0.90;;;33.70;36.80;;;;;;6258881;28;20064;-85
2022/05/18 10:09:14;;;;;;;2.97;1.10;;;36.20;32.60;;;;;;6264414;28;20048;-83
2022/05/18 10:12:23;;;;;;;3.03;1.35;;;35.60;33.20;;;;;;6276231;28;20045;-80
2022/05/18 10:15:35;;;;;;;3.60;0.90;;;35.30;34.30;;;;;;6270032;28;20566;-85
2022/05/18 10:18:43;;;;;;;3.92;0.93;;;34.60;33.50;;;;;;6264516;28;20054;-82
2022/05/18 10:21:52;;;;;;;1.55;0.70;;;34.00;34.60;;;;;;6265302;28;20106;-84
2022/05/18 10:25:04;;;;;;;2.17;1.00;;;33.70;34.10;;;;;;6260096;28;20068;-83
2022/05/18 10:28:19;;;;;;;2.00;0.88;;;33.50;34.30;;;;;;6258957;28;20046;-84
2022/05/18 10:31:28;;;;;;;5.03;1.10;;;33.50;34.40;;;;;;6255775;28;20049;-83
2022/05/18 10:34:32;;;;;;;1.25;0.50;;;33.80;34.50;;;;;;6259282;28;20131;-85
2022/05/18 10:37:36;;;;;;;3.90;0.93;;;33.80;34.40;;;;;;6257264;28;20555;-85
2022/05/18 10:40:38;;;;;;;3.60;0.70;;;34.20;34.80;;;;;;6257811;28;20128;-82
2022/05/18 10:43:42;;;;;;;2.28;1.02;;;34.40;34.10;;;;;;6256972;28;20054;-83
2022/05/18 10:46:47;;;;;;;4.60;1.15;;;34.70;33.80;;;;;;6256332;28;20469;-84
2022/05/18 10:49:49;;;;;;;3.58;0.75;;;34.80;33.60;;;;;;6256718;28;20536;-84
2022/05/18 10:52:53;;;;;;;2.08;0.65;;;34.90;33.10;;;;;;6257305;28;20042;-85
2022/05/18 10:56:00;;;;;;;1.80;0.63;;;35.30;33.30;;;;;;6258946;28;20045;-84
2022/05/18 10:59:19;;;;;;;3.33;0.77;;;35.20;32.70;;;;;;6260638;28;20458;-84
2022/05/18 11:02:29;;;;;;;2.78;0.70;;;35.30;32.60;;;;;;6261457;28;20520;-83
2022/05/18 11:05:39;;;;;;;3.78;0.77;;;35.30;32.60;;;;;;6261084;28;20132;-86
2022/05/18 11:08:41;;;;;;;3.60;0.65;;;35.00;31.90;;;;;;6262008;28;20052;-85
2022/05/18 11:11:49;;;;;;;3.63;0.98;;;34.50;32.50;;;;;;6261315;28;20065;-84
2022/05/18 11:14:58;;;;;;;1.17;0.65;;;34.30;31.70;;;;;;6261166;28;20086;-84
2022/05/18 11:18:11;;;;;;;2.92;0.60;;;34.30;32.10;;;;;;6259004;28;20594;-84
2022/05/18 11:21:23;;;;;;;1.58;0.65;;;34.30;31.30;;;;;;6258967;28;20424;-84
2022/05/18 11:24:36;;;;;;;2.15;0.95;;;34.00;32.00;;;;;;6259647;28;20052;-84
2022/05/18 11:27:45;;;;;;;2.72;0.70;;;34.20;32.20;;;;;;6260773;28;20144;-84
2022/05/18 11:30:52;;;;;;;3.60;0.77;;;34.50;33.20;;;;;;6260079;28;20133;-85
2022/05/18 11:34:00;;;;;;;;;;;34.50;32.50;;;;;;6258520;28;20504;-84
2022/05/18 11:37:23;;;;;;;1.05;0.50;;;34.80;32.80;;;;;;6225140;28;19928;-84
2022/05/18 11:40:34;;;;;;;3.20;0.60;;;34.70;31.70;;;;;;6227722;28;20135;-82
2022/05/18 11:43:46;;;;;;;3.55;0.98;;;34.50;31.60;;;;;;6234445;28;20077;-84
2022/05/18 11:47:02;;;;;;;3.95;1.33;;;34.90;32.50;;;;;;6259314;28;20077;-84
2022/05/18 11:50:15;;;;;;;3.05;0.60;;;35.40;32.70;;;;;;6252763;28;20116;-84
2022/05/18 11:53:35;;;;;;;2.40;1.15;;;35.00;31.80;;;;;;6187519;22;20063;-84
2022/05/18 11:56:45;;;;;;;2.50;1.13;;;34.60;33.00;;;;;;6157542;28;20071;-81
2022/05/18 12:00:07;;;;;;;2.53;0.90;;;34.80;32.50;;;;;;6158302;28;20054;-82
2022/05/18 12:03:28;;;;;;;7.20;0.80;;;35.00;32.30;;;;;;6158994;28;20047;-83
2022/05/18 12:06:42;;;;;;;3.60;0.98;;;34.90;32.20;;;;;;6172438;28;20141;-82
2022/05/18 12:10:00;;;;;;;1.00;0.50;;;34.80;32.20;;;;;;6213593;28;20434;-83
2022/05/18 12:13:07;;;;;;;0.93;0.77;;;34.40;32.20;;;;;;6154184;28;20130;-84
2022/05/18 12:16:18;;;;;;;5.85;0.65;;;34.50;33.40;;;;;;6157739;28;20043;-83
2022/05/18 12:19:26;;;;;;;3.25;0.80;;;34.50;32.40;;;;;;6158640;28;20051;-84
2022/05/18 12:22:36;;;;;;;1.95;0.80;;;34.50;32.70;;;;;;6158909;28;20131;-83
2022/05/18 12:25:39;;;;;;;1.58;0.85;;;34.50;31.40;;;;;;6157354;28;20062;-82
2022/05/18 12:28:43;;;;;;;2.22;0.70;;;34.50;32.50;;;;;;6155388;28;20050;-83
2022/05/18 12:31:46;;;;;;;3.72;0.70;;;34.40;31.60;;;;;;6160689;28;20058;-83
2022/05/18 12:34:58;;;;;;;3.15;0.47;;;34.40;31.90;;;;;;6160208;28;20059;-82
2022/05/18 12:38:10;;;;;;;2.90;0.60;;;34.40;32.20;;;;;;6143469;28;20066;-84
2022/05/18 12:41:13;;;;;;;0.65;0.50;;;34.30;32.00;;;;;;6131635;28;20051;-82
2022/05/18 12:44:36;;;;;;;6.60;0.77;;;34.40;32.60;;;;;;6134715;28;20075;-81
2022/05/18 12:47:45;;;;;;;3.75;0.90;;;34.50;32.40;;;;;;6148610;28;20070;-81
2022/05/18 12:51:16;;;;;;;2.30;0.55;;;34.30;32.40;;;;;;6156179;28;20065;-81
2022/05/18 12:54:33;;;;;;;8.45;1.08;;;34.30;32.50;;;;;;6155944;28;20055;-81
2022/05/18 12:57:51;;;;;;;0.73;0.32;;;34.20;32.30;;;;;;6157086;28;20073;-80
2022/05/18 13:01:01;;;;;;;1.65;0.70;;;34.00;32.10;;;;;;6155008;28;20662;-80
2022/05/18 13:04:19;;;;;;;1.13;0.50;;;33.80;33.00;;;;;;6158340;28;20047;-81
2022/05/18 13:07:30;;;;;;;3.03;0.85;;;33.80;32.70;;;;;;6200737;28;20069;-81
2022/05/18 13:10:37;;;;;;;1.38;0.60;;;33.70;32.10;;;;;;6256726;28;20045;-80
2022/05/18 13:14:04;;;;;;;2.47;0.88;;;33.50;32.30;;;;;;6280589;28;20040;-80
2022/05/18 13:17:42;;;;;;;3.25;0.70;;;33.40;34.00;;;;;;6280656;28;20049;-81
2022/05/18 13:20:52;;;;;;;2.08;0.70;;;33.40;32.60;;;;;;6281183;28;20500;-80
2022/05/18 13:24:02;;;;;;;2.72;0.68;;;33.40;33.20;;;;;;6280230;28;20048;-80
2022/05/18 13:27:11;;;;;;;3.95;0.88;;;33.50;32.60;;;;;;6279767;28;20064;-80
2022/05/18 13:30:27;;;;;;;3.80;0.73;;;33.40;32.70;;;;;;6277913;28;20408;-80
2022/05/18 13:33:37;;;;;;;1.80;0.50;;;33.40;32.70;;;;;;6277186;28;20045;-81
2022/05/18 13:36:47;;;;;;;1.48;0.77;;;33.50;32.50;;;;;;6258384;28;20097;-81
2022/05/18 13:39:50;;;;;;;0.95;0.70;;;33.50;32.90;;;;;;6177951;28;20534;-80
2022/05/18 13:42:56;;;;;;;5.18;0.63;;;33.60;32.40;;;;;;6131438;29;20062;-80
2022/05/18 13:46:02;;;;;;;1.80;0.40;;;33.50;32.50;;;;;;6131069;28;20510;-80
2022/05/18 13:49:09;;;;;;;1.90;0.70;;;33.40;32.60;;;;;;6141134;28;20063;-81
2022/05/18 13:52:16;;;;;;;2.45;0.68;;;33.20;33.50;;;;;;6152847;28;20058;-80
2022/05/18 13:55:22;;;;;;;3.15;0.88;;;33.20;32.50;;;;;;6156359;28;20109;-81
2022/05/18 13:58:27;;;;;;;2.08;0.80;;;33.20;32.90;;;;;;6156573;28;20051;-82
2022/05/18 14:01:31;;;;;;;2.83;0.70;;;33.50;33.00;;;;;;6155900;28;20122;-81
2022/05/18 14:04:36;;;;;;;1.08;0.50;;;33.60;33.40;;;;;;6155785;28;20055;-81
2022/05/18 14:07:41;;;;;;;2.75;1.20;;;33.90;33.00;;;;;;6180785;28;20132;-81
2022/05/18 14:10:43;;;;;;;2.40;0.90;;;34.20;33.60;;;;;;6173515;28;20054;-82
2022/05/18 14:13:48;;;;;;;3.33;0.90;;;34.30;32.50;;;;;;6159350;28;20062;-81
2022/05/18 14:16:56;;;;;;;2.88;0.60;;;34.40;32.70;;;;;;6161269;28;20057;-81
2022/05/18 14:20:01;;;;;;;0.50;0.40;;;34.40;32.60;;;;;;6157972;28;20054;-81
2022/05/18 14:23:05;;;;;;;2.10;1.00;;;34.30;32.10;;;;;;6161788;28;20058;-81
2022/05/18 14:26:11;;;;;;;2.45;1.10;;;34.30;32.70;;;;;;6160421;28;20043;-81
2022/05/18 14:29:23;;;;;;;2.45;0.60;;;34.60;32.80;;;;;;6153535;28;20126;-82
2022/05/18 14:32:33;;;;;;;1.88;0.82;;;34.70;33.00;;;;;;6154437;28;20051;-81
2022/05/18 14:35:38;;;;;;;0.77;0.50;;;34.80;33.60;;;;;;6158253;28;20138;-80
2022/05/18 14:38:47;;;;;;;3.95;0.80;;;35.20;33.80;;;;;;6194050;28;20048;-84
2022/05/18 14:41:52;;;;;;;1.20;0.63;;;35.40;33.10;;;;;;6146218;28;20056;-83
2022/05/18 14:45:03;;;;;;;2.45;0.70;;;35.10;32.90;;;;;;6134670;28;20056;-82
2022/05/18 14:48:16;;;;;;;1.70;0.70;;;34.90;32.60;;;;;;6136565;28;20024;-82
2022/05/18 14:51:22;;;;;;;1.67;0.50;;;35.00;33.30;;;;;;6134817;29;20052;-83
2022/05/18 14:54:26;;;;;;;4.07;0.80;;;34.90;32.80;;;;;;6132780;29;20060;-82
2022/05/18 14:57:33;;;;;;;1.85;0.80;;;34.60;33.10;;;;;;6153024;28;20515;-81
2022/05/18 15:00:41;;;;;;;2.67;0.98;;;34.30;33.20;;;;;;6281715;28;20131;-81
2022/05/18 15:03:44;;;;;;;3.10;0.70;;;34.20;33.80;;;;;;6282053;28;20051;-81
2022/05/18 15:06:49;;;;;;;2.58;0.60;;;34.20;34.40;;;;;;6266827;28;20053;-80
2022/05/18 15:09:54;;;;;;;2.50;0.80;;;34.30;34.10;;;;;;6269779;28;20049;-81
2022/05/18 15:13:03;;;;;;;1.50;0.68;;;34.30;33.30;;;;;;6279596;28;20044;-80
2022/05/18 15:16:10;;;;;;;1.58;0.70;;;34.30;33.10;;;;;;6278298;28;20045;-81
2022/05/18 15:19:19;;;;;;;1.95;1.02;;;34.30;33.90;;;;;;6279216;28;20053;-81
2022/05/18 15:22:27;;;;;;;5.53;1.00;;;34.20;33.20;;;;;;6280210;28;20420;-82
2022/05/18 15:25:42;;;;;;;3.47;0.90;;;33.80;33.60;;;;;;6279453;28;20049;-81
2022/05/18 15:28:47;;;;;;;1.95;0.60;;;33.50;33.90;;;;;;6278401;28;20552;-80
2022/05/18 15:31:52;;;;;;;3.00;0.60;;;33.30;34.10;;;;;;6278855;28;20045;-81
2022/05/18 15:35:00;;;;;;;1.42;0.77;;;33.30;34.30;;;;;;6156468;28;20061;-80
2022/05/18 15:38:03;;;;;;;4.78;0.68;;;33.30;34.50;;;;;;6195718;28;20198;-81
2022/05/18 15:41:05;;;;;;;3.88;0.70;;;33.30;34.30;;;;;;6199685;28;20039;-79
2022/05/18 15:44:07;;;;;;;2.08;0.75;;;33.20;34.20;;;;;;6154064;28;20126;-79
2022/05/18 15:47:13;;;;;;;1.63;0.57;;;33.00;34.60;;;;;;6154311;28;20133;-80
2022/05/18 15:50:17;;;;;;;3.50;0.68;;;33.00;35.00;;;;;;6160660;28;20126;-80
2022/05/18 15:53:24;;;;;;;1.40;0.73;;;33.00;34.70;;;;;;6136785;28;20057;-80
2022/05/18 15:56:27;;;;;;;3.35;1.00;;;33.00;34.10;;;;;;6130895;28;20743;-80
2022/05/18 15:59:29;;;;;;;5.25;1.15;;;33.00;34.50;;;;;;6129904;28;20062;-80
2022/05/18 16:02:34;;;;;;;2.30;0.60;;;32.90;34.60;;;;;;6128986;28;20051;-81
2022/05/18 16:05:37;;;;;;;2.83;1.02;;;32.90;34.80;;;;;;6127598;28;20150;-79
2022/05/18 16:08:41;;;;;;;2.97;0.85;;;33.00;34.90;;;;;;6213305;28;20508;-79
2022/05/18 16:11:43;;;;;;;1.20;0.60;;;33.00;34.70;;;;;;6280539;28;20041;-80
2022/05/18 16:14:46;;;;;;;3.95;0.77;;;33.00;34.50;;;;;;6277774;28;20090;-80
2022/05/18 16:17:49;;;;;;;2.03;0.73;;;32.90;34.30;;;;;;6276927;28;20060;-80
2022/05/18 16:20:51;;;;;;;0.90;0.60;;;32.70;35.00;;;;;;6278762;28;20071;-80
2022/05/18 16:23:55;;;;;;;2.92;0.85;;;32.60;35.20;;;;;;6275853;28;20051;-80
2022/05/18 16:26:57;;;;;;;4.22;0.77;;;32.50;35.00;;;;;;6276627;28;20049;-80
2022/05/18 16:30:00;;;;;;;2.75;0.70;;;32.50;35.00;;;;;;6275135;28;20053;-80
2022/05/18 16:33:03;;;;;;;1.45;0.68;;;32.40;35.70;;;;;;6276456;28;20041;-80
2022/05/18 16:36:07;;;;;;;6.90;0.75;;;32.40;36.00;;;;;;6265887;28;20045;-80
2022/05/18 16:39:08;;;;;;;1.08;0.60;;;32.40;35.50;;;;;;6195621;28;20055;-80
2022/05/18 16:42:12;;;;;;;3.95;0.80;;;32.30;35.60;;;;;;6140188;28;20055;-80
2022/05/18 16:45:18;;;;;;;3.33;0.80;;;32.20;35.80;;;;;;6154254;28;20054;-81
2022/05/18 16:48:23;;;;;;;4.68;0.95;;;32.10;35.60;;;;;;6155429;28;20126;-81
2022/05/18 16:51:25;;;;;;;4.13;0.75;;;31.90;35.50;;;;;;6156923;28;20055;-82
2022/05/18 16:54:28;;;;;;;3.05;0.82;;;31.80;36.00;;;;;;6155570;28;20521;-80
2022/05/18 16:57:33;;;;;;;4.13;0.60;;;31.80;36.10;;;;;;6154016;28;20146;-81
2022/05/18 17:00:34;;;;;;;5.30;0.95;;;31.60;36.00;;;;;;6154716;28;20054;-80
2022/05/18 17:03:39;;;;;;;0.90;0.40;;;31.50;36.70;;;;;;6153058;28;20061;-81
2022/05/18 17:06:41;;;;;;;1.63;0.75;;;31.10;36.90;;;;;;6178545;28;20052;-82
2022/05/18 17:09:42;;;;;;;3.92;1.20;;;30.70;37.40;;;;;;6156509;28;20054;-81
2022/05/18 17:12:45;;;;;;;1.55;0.77;;;30.50;37.80;;;;;;6126454;28;20055;-79
2022/05/18 17:15:47;;;;;;;1.35;0.60;;;30.30;37.90;;;;;;6128203;28;20055;-80
2022/05/18 17:18:50;;;;;;;6.18;0.70;;;30.00;38.20;;;;;;6130333;29;20048;-80
2022/05/18 17:21:52;;;;;;;3.38;0.70;;;29.80;38.40;;;;;;6125423;28;20040;-80
2022/05/18 17:24:54;;;;;;;2.13;0.68;;;29.60;38.90;;;;;;6126229;28;20056;-80
2022/05/18 17:27:56;;;;;;;1.50;0.60;;;29.50;39.00;;;;;;6125661;28;20047;-78
2022/05/18 17:30:58;;;;;;;4.75;1.10;;;29.30;39.00;;;;;;6125746;29;20081;-79
2022/05/18 17:34:01;;;;;;;1.10;0.60;;;29.20;39.50;;;;;;6125050;28;20426;-81
2022/05/18 17:37:03;;;;;;;3.63;0.80;;;29.20;39.90;;;;;;6173250;28;20124;-79
2022/05/18 17:40:07;;;;;;;2.72;0.80;;;29.10;39.80;;;;;;6184155;28;20054;-78
2022/05/18 17:43:09;;;;;;;2.22;0.60;;;29.00;40.30;;;;;;6123923;29;20417;-79
2022/05/18 17:46:12;;;;;;;1.88;0.90;;;29.00;40.40;;;;;;6123497;28;20122;-79
2022/05/18 17:49:15;;;;;;;2.40;0.70;;;28.80;40.70;;;;;;6127732;28;20055;-78
2022/05/18 17:52:19;;;;;;;1.17;0.52;;;28.90;40.90;;;;;;6228991;28;20049;-82
2022/05/18 17:55:22;;;;;;;1.52;0.80;;;28.80;41.00;;;;;;6184255;23;20153;-84
2022/05/18 17:58:30;;;;;;;2.47;1.40;;;28.80;41.20;;;;;;6253973;28;20095;-84
2022/05/18 18:01:34;;;;;;;2.30;0.82;;;28.70;41.20;;;;;;6252715;28;20058;-83
2022/05/18 18:09:10;;;;;;;2.95;1.00;;;28.60;41.80;;;;;;6252044;28;20049;-84
2022/05/18 18:15:38;;;;;;;2.63;0.50;;;28.40;42.10;;;;;;6217702;28;20054;-84
2022/05/18 18:18:47;;;;;;;3.22;0.47;;;28.30;42.60;;;;;;6236125;28;20049;-84
2022/05/18 18:21:53;;;;;;;7.80;0.63;;;28.20;42.90;;;;;;6232225;28;20053;-85
2022/05/18 18:25:16;;;;;;;2.95;0.90;;;28.10;43.10;;;;;;6229809;28;20046;-83
2022/05/18 18:28:23;;;;;;;2.95;0.80;;;28.00;43.30;;;;;;6231672;28;20046;-85
2022/05/18 18:31:32;;;;;;;4.72;0.80;;;27.90;43.80;;;;;;6230508;28;20046;-85
2022/05/18 18:47:22;;;;;;;3.00;0.75;;;27.30;45.30;;;;;;6208511;28;20058;-84
2022/05/18 18:57:17;;;;;;;7.93;1.70;;;26.80;46.80;;;;;;6205864;28;20533;-85